Schedule Details

Flight Number: CPX411
Departure: Minneapolis-St Paul International/Wold-Chamberlain Airport (KMSP) at N/A
Arrival: Chicago/Rockford International Airport (KRFD) at N/A
Route: ZMBRO7 ODI J30 COTON RFD


Current Weather Information
KMSP 192253Z 13007KT 10SM FEW200 M07/M14 A3039 RMK AO2 SLP310 T10721139
KRFD 192254Z 06005KT 10SM FEW160 OVC250 M03/M10 A3048 RMK AO2 SLP336 T10331100